sensor_id;sensor_type;location;lat;lon;timestamp;P1;durP1;ratioP1;P2;durP2;ratioP2
55539;SDS011;41384;51.418;7.286;2022-09-09T00:00:19;0.77;;;0.40;;
55539;SDS011;41384;51.418;7.286;2022-09-09T00:05:39;1.42;;;0.38;;
55539;SDS011;41384;51.418;7.286;2022-09-09T00:08:12;3.75;;;0.60;;
55539;SDS011;41384;51.418;7.286;2022-09-09T00:10:44;0.45;;;0.30;;
55539;SDS011;41384;51.418;7.286;2022-09-09T00:13:19;1.60;;;0.50;;
55539;SDS011;41384;51.418;7.286;2022-09-09T00:18:52;0.70;;;0.30;;
55539;SDS011;41384;51.418;7.286;2022-09-09T00:22:00;1.52;;;0.43;;
55539;SDS011;41384;51.418;7.286;2022-09-09T00:24:42;0.40;;;0.30;;
55539;SDS011;41384;51.418;7.286;2022-09-09T00:30:13;1.40;;;0.40;;
55539;SDS011;41384;51.418;7.286;2022-09-09T00:32:39;1.02;;;0.50;;
55539;SDS011;41384;51.418;7.286;2022-09-09T00:35:14;0.95;;;0.35;;
55539;SDS011;41384;51.418;7.286;2022-09-09T00:37:43;1.98;;;0.52;;
55539;SDS011;41384;51.418;7.286;2022-09-09T00:40:26;2.05;;;0.90;;
55539;SDS011;41384;51.418;7.286;2022-09-09T00:48:38;2.13;;;1.00;;
55539;SDS011;41384;51.418;7.286;2022-09-09T00:51:15;4.03;;;1.13;;
55539;SDS011;41384;51.418;7.286;2022-09-09T00:57:10;1.50;;;0.98;;
55539;SDS011;41384;51.418;7.286;2022-09-09T01:02:25;1.63;;;0.95;;
55539;SDS011;41384;51.418;7.286;2022-09-09T01:04:53;2.83;;;1.08;;
55539;SDS011;41384;51.418;7.286;2022-09-09T01:07:19;4.28;;;1.30;;
55539;SDS011;41384;51.418;7.286;2022-09-09T01:09:50;3.03;;;1.05;;
55539;SDS011;41384;51.418;7.286;2022-09-09T01:12:28;3.58;;;1.33;;
55539;SDS011;41384;51.418;7.286;2022-09-09T01:15:03;3.40;;;1.20;;
55539;SDS011;41384;51.418;7.286;2022-09-09T01:17:38;3.15;;;1.30;;
55539;SDS011;41384;51.418;7.286;2022-09-09T01:22:50;1.85;;;1.40;;
55539;SDS011;41384;51.418;7.286;2022-09-09T01:27:58;1.60;;;1.20;;
55539;SDS011;41384;51.418;7.286;2022-09-09T01:30:27;3.20;;;1.30;;
55539;SDS011;41384;51.418;7.286;2022-09-09T01:32:54;1.98;;;1.23;;
55539;SDS011;41384;51.418;7.286;2022-09-09T01:35:27;3.78;;;1.42;;
55539;SDS011;41384;51.418;7.286;2022-09-09T01:37:57;2.97;;;1.27;;
55539;SDS011;41384;51.418;7.286;2022-09-09T01:40:24;1.48;;;1.20;;
55539;SDS011;41384;51.418;7.286;2022-09-09T01:42:50;5.13;;;1.02;;
55539;SDS011;41384;51.418;7.286;2022-09-09T01:45:16;2.60;;;1.17;;
55539;SDS011;41384;51.418;7.286;2022-09-09T01:47:42;1.75;;;1.27;;
55539;SDS011;41384;51.418;7.286;2022-09-09T01:50:09;4.05;;;1.33;;
55539;SDS011;41384;51.418;7.286;2022-09-09T01:52:36;1.95;;;1.02;;
55539;SDS011;41384;51.418;7.286;2022-09-09T01:55:02;2.88;;;1.00;;
55539;SDS011;41384;51.418;7.286;2022-09-09T01:57:33;3.10;;;0.90;;
55539;SDS011;41384;51.418;7.286;2022-09-09T02:00:09;4.07;;;1.10;;
55539;SDS011;41384;51.418;7.286;2022-09-09T02:05:41;5.18;;;1.30;;
55539;SDS011;41384;51.418;7.286;2022-09-09T02:11:13;2.72;;;1.00;;
55539;SDS011;41384;51.418;7.286;2022-09-09T02:13:40;2.60;;;1.00;;
55539;SDS011;41384;51.418;7.286;2022-09-09T02:16:11;2.33;;;1.25;;
55539;SDS011;41384;51.418;7.286;2022-09-09T02:21:21;2.53;;;1.00;;
55539;SDS011;41384;51.418;7.286;2022-09-09T02:23:48;2.00;;;1.00;;
55539;SDS011;41384;51.418;7.286;2022-09-09T02:26:16;2.47;;;1.15;;
55539;SDS011;41384;51.418;7.286;2022-09-09T02:28:47;3.47;;;1.13;;
55539;SDS011;41384;51.418;7.286;2022-09-09T02:31:15;2.50;;;1.30;;
55539;SDS011;41384;51.418;7.286;2022-09-09T02:33:45;2.05;;;0.93;;
55539;SDS011;41384;51.418;7.286;2022-09-09T02:36:16;2.88;;;1.17;;
55539;SDS011;41384;51.418;7.286;2022-09-09T02:38:43;1.65;;;0.95;;
55539;SDS011;41384;51.418;7.286;2022-09-09T02:41:15;2.22;;;1.10;;
55539;SDS011;41384;51.418;7.286;2022-09-09T02:43:46;3.97;;;0.90;;
55539;SDS011;41384;51.418;7.286;2022-09-09T02:46:22;3.42;;;1.02;;
55539;SDS011;41384;51.418;7.286;2022-09-09T02:49:18;2.75;;;1.05;;
55539;SDS011;41384;51.418;7.286;2022-09-09T02:54:33;2.78;;;1.00;;
55539;SDS011;41384;51.418;7.286;2022-09-09T02:57:13;2.15;;;0.93;;
55539;SDS011;41384;51.418;7.286;2022-09-09T02:59:42;2.70;;;1.00;;
55539;SDS011;41384;51.418;7.286;2022-09-09T03:02:10;2.75;;;0.90;;
55539;SDS011;41384;51.418;7.286;2022-09-09T03:04:36;3.53;;;0.93;;
55539;SDS011;41384;51.418;7.286;2022-09-09T03:07:02;2.58;;;0.85;;
55539;SDS011;41384;51.418;7.286;2022-09-09T03:09:28;3.80;;;1.20;;
55539;SDS011;41384;51.418;7.286;2022-09-09T03:11:53;4.22;;;1.00;;
55539;SDS011;41384;51.418;7.286;2022-09-09T03:14:19;1.52;;;0.80;;
55539;SDS011;41384;51.418;7.286;2022-09-09T03:16:46;4.20;;;1.10;;
55539;SDS011;41384;51.418;7.286;2022-09-09T03:19:12;3.65;;;1.08;;
55539;SDS011;41384;51.418;7.286;2022-09-09T03:21:37;0.90;;;0.80;;
55539;SDS011;41384;51.418;7.286;2022-09-09T03:24:03;3.63;;;1.13;;
55539;SDS011;41384;51.418;7.286;2022-09-09T03:26:29;2.88;;;1.00;;
55539;SDS011;41384;51.418;7.286;2022-09-09T03:28:55;1.45;;;0.75;;
55539;SDS011;41384;51.418;7.286;2022-09-09T03:31:20;1.88;;;0.93;;
55539;SDS011;41384;51.418;7.286;2022-09-09T03:33:46;3.70;;;0.90;;
55539;SDS011;41384;51.418;7.286;2022-09-09T03:36:11;5.45;;;1.02;;
55539;SDS011;41384;51.418;7.286;2022-09-09T03:38:36;4.68;;;1.10;;
55539;SDS011;41384;51.418;7.286;2022-09-09T03:41:02;8.45;;;1.10;;
55539;SDS011;41384;51.418;7.286;2022-09-09T03:43:27;3.60;;;0.90;;
55539;SDS011;41384;51.418;7.286;2022-09-09T03:45:54;3.22;;;0.80;;
55539;SDS011;41384;51.418;7.286;2022-09-09T03:48:22;4.68;;;1.00;;
55539;SDS011;41384;51.418;7.286;2022-09-09T03:50:50;4.28;;;1.00;;
55539;SDS011;41384;51.418;7.286;2022-09-09T03:53:19;2.00;;;0.98;;
55539;SDS011;41384;51.418;7.286;2022-09-09T03:55:46;5.22;;;1.00;;
55539;SDS011;41384;51.418;7.286;2022-09-09T03:58:14;1.52;;;0.88;;
55539;SDS011;41384;51.418;7.286;2022-09-09T04:00:40;3.08;;;1.08;;
55539;SDS011;41384;51.418;7.286;2022-09-09T04:03:08;2.65;;;1.00;;
55539;SDS011;41384;51.418;7.286;2022-09-09T04:05:34;5.07;;;1.25;;
55539;SDS011;41384;51.418;7.286;2022-09-09T04:08:00;1.85;;;0.93;;
55539;SDS011;41384;51.418;7.286;2022-09-09T04:10:25;2.95;;;1.05;;
55539;SDS011;41384;51.418;7.286;2022-09-09T04:12:51;3.08;;;1.00;;
55539;SDS011;41384;51.418;7.286;2022-09-09T04:15:17;1.85;;;0.88;;
55539;SDS011;41384;51.418;7.286;2022-09-09T04:17:43;4.28;;;1.10;;
55539;SDS011;41384;51.418;7.286;2022-09-09T04:20:09;3.25;;;1.20;;
55539;SDS011;41384;51.418;7.286;2022-09-09T04:22:37;2.55;;;1.08;;
55539;SDS011;41384;51.418;7.286;2022-09-09T04:25:03;3.30;;;1.38;;
55539;SDS011;41384;51.418;7.286;2022-09-09T04:27:30;3.03;;;1.20;;
55539;SDS011;41384;51.418;7.286;2022-09-09T04:29:56;4.00;;;1.33;;
55539;SDS011;41384;51.418;7.286;2022-09-09T04:32:22;2.92;;;1.20;;
55539;SDS011;41384;51.418;7.286;2022-09-09T04:34:48;4.07;;;1.05;;
55539;SDS011;41384;51.418;7.286;2022-09-09T04:37:13;4.80;;;1.30;;
55539;SDS011;41384;51.418;7.286;2022-09-09T04:39:39;4.18;;;1.30;;
55539;SDS011;41384;51.418;7.286;2022-09-09T04:42:04;3.53;;;1.25;;
55539;SDS011;41384;51.418;7.286;2022-09-09T04:44:29;3.03;;;1.10;;
55539;SDS011;41384;51.418;7.286;2022-09-09T04:46:55;3.88;;;0.98;;
55539;SDS011;41384;51.418;7.286;2022-09-09T04:49:21;6.25;;;1.08;;
55539;SDS011;41384;51.418;7.286;2022-09-09T04:51:46;2.60;;;1.00;;
55539;SDS011;41384;51.418;7.286;2022-09-09T04:54:14;3.95;;;1.00;;
55539;SDS011;41384;51.418;7.286;2022-09-09T04:56:39;2.58;;;1.05;;
55539;SDS011;41384;51.418;7.286;2022-09-09T04:59:07;2.35;;;1.05;;
55539;SDS011;41384;51.418;7.286;2022-09-09T05:01:32;3.50;;;1.20;;
55539;SDS011;41384;51.418;7.286;2022-09-09T05:03:58;4.00;;;1.17;;
55539;SDS011;41384;51.418;7.286;2022-09-09T05:06:23;2.40;;;1.08;;
55539;SDS011;41384;51.418;7.286;2022-09-09T05:08:50;4.00;;;1.00;;
55539;SDS011;41384;51.418;7.286;2022-09-09T05:11:17;3.13;;;0.90;;
55539;SDS011;41384;51.418;7.286;2022-09-09T05:13:43;4.93;;;1.15;;
55539;SDS011;41384;51.418;7.286;2022-09-09T05:16:09;3.42;;;1.10;;
55539;SDS011;41384;51.418;7.286;2022-09-09T05:18:36;4.18;;;1.20;;
55539;SDS011;41384;51.418;7.286;2022-09-09T05:21:02;3.22;;;1.10;;
55539;SDS011;41384;51.418;7.286;2022-09-09T05:23:27;4.00;;;1.33;;
55539;SDS011;41384;51.418;7.286;2022-09-09T05:25:56;2.35;;;1.48;;
55539;SDS011;41384;51.418;7.286;2022-09-09T05:28:23;3.78;;;1.10;;
55539;SDS011;41384;51.418;7.286;2022-09-09T05:30:59;5.57;;;1.52;;
55539;SDS011;41384;51.418;7.286;2022-09-09T05:33:26;5.28;;;1.40;;
55539;SDS011;41384;51.418;7.286;2022-09-09T05:35:58;5.88;;;1.08;;
55539;SDS011;41384;51.418;7.286;2022-09-09T05:38:26;3.97;;;1.45;;
55539;SDS011;41384;51.418;7.286;2022-09-09T05:40:52;3.25;;;1.08;;
55539;SDS011;41384;51.418;7.286;2022-09-09T05:43:18;4.35;;;1.45;;
55539;SDS011;41384;51.418;7.286;2022-09-09T05:45:47;4.40;;;1.15;;
55539;SDS011;41384;51.418;7.286;2022-09-09T05:48:16;1.75;;;1.02;;
55539;SDS011;41384;51.418;7.286;2022-09-09T05:50:42;5.97;;;1.10;;
55539;SDS011;41384;51.418;7.286;2022-09-09T05:53:09;4.68;;;0.82;;
55539;SDS011;41384;51.418;7.286;2022-09-09T05:55:35;3.15;;;1.00;;
55539;SDS011;41384;51.418;7.286;2022-09-09T05:58:00;6.88;;;1.38;;
55539;SDS011;41384;51.418;7.286;2022-09-09T06:00:26;3.55;;;0.98;;
55539;SDS011;41384;51.418;7.286;2022-09-09T06:02:51;3.83;;;1.27;;
55539;SDS011;41384;51.418;7.286;2022-09-09T06:05:17;3.17;;;0.93;;
55539;SDS011;41384;51.418;7.286;2022-09-09T06:07:43;2.53;;;0.90;;
55539;SDS011;41384;51.418;7.286;2022-09-09T06:10:09;3.95;;;1.10;;
55539;SDS011;41384;51.418;7.286;2022-09-09T06:12:35;5.05;;;1.27;;
55539;SDS011;41384;51.418;7.286;2022-09-09T06:15:01;5.22;;;1.38;;
55539;SDS011;41384;51.418;7.286;2022-09-09T06:17:26;5.10;;;0.88;;
55539;SDS011;41384;51.418;7.286;2022-09-09T06:19:52;4.88;;;1.27;;
55539;SDS011;41384;51.418;7.286;2022-09-09T06:22:18;4.03;;;1.10;;
55539;SDS011;41384;51.418;7.286;2022-09-09T06:24:43;4.70;;;1.50;;
55539;SDS011;41384;51.418;7.286;2022-09-09T06:27:09;6.18;;;1.20;;
55539;SDS011;41384;51.418;7.286;2022-09-09T06:29:35;4.45;;;1.10;;
55539;SDS011;41384;51.418;7.286;2022-09-09T06:32:01;4.90;;;1.30;;
55539;SDS011;41384;51.418;7.286;2022-09-09T06:34:27;4.57;;;0.82;;
55539;SDS011;41384;51.418;7.286;2022-09-09T06:36:53;4.38;;;1.23;;
55539;SDS011;41384;51.418;7.286;2022-09-09T06:39:18;4.75;;;1.17;;
55539;SDS011;41384;51.418;7.286;2022-09-09T06:41:43;4.18;;;0.88;;
55539;SDS011;41384;51.418;7.286;2022-09-09T06:44:09;6.93;;;1.27;;
55539;SDS011;41384;51.418;7.286;2022-09-09T06:46:36;3.83;;;1.20;;
55539;SDS011;41384;51.418;7.286;2022-09-09T06:49:02;2.78;;;1.00;;
55539;SDS011;41384;51.418;7.286;2022-09-09T06:51:31;5.57;;;1.23;;
55539;SDS011;41384;51.418;7.286;2022-09-09T06:53:59;3.88;;;0.80;;
55539;SDS011;41384;51.418;7.286;2022-09-09T06:58:55;2.60;;;0.90;;
55539;SDS011;41384;51.418;7.286;2022-09-09T07:01:27;4.25;;;1.05;;
55539;SDS011;41384;51.418;7.286;2022-09-09T07:03:55;2.85;;;1.13;;
55539;SDS011;41384;51.418;7.286;2022-09-09T07:06:24;3.53;;;0.82;;
55539;SDS011;41384;51.418;7.286;2022-09-09T07:08:58;3.58;;;1.00;;
55539;SDS011;41384;51.418;7.286;2022-09-09T07:11:29;3.53;;;1.10;;
55539;SDS011;41384;51.418;7.286;2022-09-09T07:13:56;4.25;;;1.10;;
55539;SDS011;41384;51.418;7.286;2022-09-09T07:16:24;3.83;;;1.00;;
55539;SDS011;41384;51.418;7.286;2022-09-09T07:18:50;3.30;;;0.75;;
55539;SDS011;41384;51.418;7.286;2022-09-09T07:21:16;3.17;;;0.90;;
55539;SDS011;41384;51.418;7.286;2022-09-09T07:23:42;2.90;;;1.05;;
55539;SDS011;41384;51.418;7.286;2022-09-09T07:26:11;3.60;;;0.77;;
55539;SDS011;41384;51.418;7.286;2022-09-09T07:28:38;7.65;;;1.30;;
55539;SDS011;41384;51.418;7.286;2022-09-09T07:31:04;5.10;;;0.98;;
55539;SDS011;41384;51.418;7.286;2022-09-09T07:33:31;4.13;;;0.93;;
55539;SDS011;41384;51.418;7.286;2022-09-09T07:36:06;3.78;;;1.27;;
55539;SDS011;41384;51.418;7.286;2022-09-09T07:38:46;3.45;;;0.90;;
55539;SDS011;41384;51.418;7.286;2022-09-09T07:41:14;3.33;;;0.80;;
55539;SDS011;41384;51.418;7.286;2022-09-09T07:43:42;2.97;;;1.00;;
55539;SDS011;41384;51.418;7.286;2022-09-09T07:46:09;3.10;;;1.00;;
55539;SDS011;41384;51.418;7.286;2022-09-09T07:48:36;7.75;;;0.90;;
55539;SDS011;41384;51.418;7.286;2022-09-09T07:51:10;3.03;;;0.82;;
55539;SDS011;41384;51.418;7.286;2022-09-09T07:53:42;2.70;;;0.90;;
55539;SDS011;41384;51.418;7.286;2022-09-09T07:56:09;2.17;;;0.88;;
55539;SDS011;41384;51.418;7.286;2022-09-09T07:58:36;3.42;;;1.02;;
55539;SDS011;41384;51.418;7.286;2022-09-09T08:01:22;2.05;;;0.70;;
55539;SDS011;41384;51.418;7.286;2022-09-09T08:03:54;3.83;;;0.88;;
55539;SDS011;41384;51.418;7.286;2022-09-09T08:06:24;1.40;;;0.63;;
55539;SDS011;41384;51.418;7.286;2022-09-09T08:08:51;3.55;;;0.85;;
55539;SDS011;41384;51.418;7.286;2022-09-09T08:11:18;2.10;;;0.70;;
55539;SDS011;41384;51.418;7.286;2022-09-09T08:13:44;6.10;;;1.00;;
55539;SDS011;41384;51.418;7.286;2022-09-09T08:16:10;5.05;;;0.95;;
55539;SDS011;41384;51.418;7.286;2022-09-09T08:18:37;7.15;;;0.88;;
55539;SDS011;41384;51.418;7.286;2022-09-09T08:21:08;5.13;;;0.98;;
55539;SDS011;41384;51.418;7.286;2022-09-09T08:23:36;3.25;;;0.88;;
55539;SDS011;41384;51.418;7.286;2022-09-09T08:26:03;2.65;;;0.63;;
55539;SDS011;41384;51.418;7.286;2022-09-09T08:28:29;5.28;;;1.00;;
55539;SDS011;41384;51.418;7.286;2022-09-09T08:30:56;2.97;;;1.00;;
55539;SDS011;41384;51.418;7.286;2022-09-09T08:33:29;4.05;;;0.95;;
55539;SDS011;41384;51.418;7.286;2022-09-09T08:35:54;4.72;;;0.95;;
55539;SDS011;41384;51.418;7.286;2022-09-09T08:38:19;3.95;;;1.27;;
55539;SDS011;41384;51.418;7.286;2022-09-09T08:40:46;3.42;;;1.00;;
55539;SDS011;41384;51.418;7.286;2022-09-09T08:43:14;3.92;;;1.00;;
55539;SDS011;41384;51.418;7.286;2022-09-09T08:45:49;6.72;;;1.08;;
55539;SDS011;41384;51.418;7.286;2022-09-09T08:48:43;4.10;;;1.00;;
55539;SDS011;41384;51.418;7.286;2022-09-09T08:51:17;5.20;;;0.80;;
55539;SDS011;41384;51.418;7.286;2022-09-09T08:53:44;3.80;;;1.00;;
55539;SDS011;41384;51.418;7.286;2022-09-09T08:56:14;3.42;;;1.10;;
55539;SDS011;41384;51.418;7.286;2022-09-09T08:58:44;4.88;;;1.05;;
55539;SDS011;41384;51.418;7.286;2022-09-09T09:04:26;4.70;;;1.17;;
55539;SDS011;41384;51.418;7.286;2022-09-09T09:09:25;3.60;;;0.88;;
55539;SDS011;41384;51.418;7.286;2022-09-09T09:11:54;4.57;;;1.00;;
55539;SDS011;41384;51.418;7.286;2022-09-09T09:14:26;1.45;;;1.10;;
55539;SDS011;41384;51.418;7.286;2022-09-09T09:16:59;5.85;;;1.20;;
55539;SDS011;41384;51.418;7.286;2022-09-09T09:19:26;3.15;;;1.00;;
55539;SDS011;41384;51.418;7.286;2022-09-09T09:29:53;6.32;;;0.90;;
55539;SDS011;41384;51.418;7.286;2022-09-09T09:32:22;3.83;;;0.80;;
55539;SDS011;41384;51.418;7.286;2022-09-09T09:34:51;4.03;;;0.93;;
55539;SDS011;41384;51.418;7.286;2022-09-09T09:37:26;5.13;;;0.80;;
55539;SDS011;41384;51.418;7.286;2022-09-09T09:39:53;3.40;;;0.80;;
55539;SDS011;41384;51.418;7.286;2022-09-09T09:42:19;4.78;;;0.95;;
55539;SDS011;41384;51.418;7.286;2022-09-09T09:44:45;4.28;;;1.10;;
55539;SDS011;41384;51.418;7.286;2022-09-09T09:47:11;3.67;;;0.80;;
55539;SDS011;41384;51.418;7.286;2022-09-09T09:49:37;2.72;;;0.77;;
55539;SDS011;41384;51.418;7.286;2022-09-09T09:52:03;3.38;;;1.15;;
55539;SDS011;41384;51.418;7.286;2022-09-09T09:54:30;5.28;;;1.48;;
55539;SDS011;41384;51.418;7.286;2022-09-09T09:57:10;5.05;;;0.88;;
55539;SDS011;41384;51.418;7.286;2022-09-09T09:59:37;3.85;;;0.95;;
55539;SDS011;41384;51.418;7.286;2022-09-09T10:02:21;5.13;;;1.00;;
55539;SDS011;41384;51.418;7.286;2022-09-09T10:05:02;1.75;;;0.70;;
55539;SDS011;41384;51.418;7.286;2022-09-09T10:07:30;3.25;;;0.90;;
55539;SDS011;41384;51.418;7.286;2022-09-09T10:09:56;4.90;;;0.85;;
55539;SDS011;41384;51.418;7.286;2022-09-09T10:12:25;3.03;;;0.70;;
55539;SDS011;41384;51.418;7.286;2022-09-09T10:15:05;3.55;;;1.00;;
55539;SDS011;41384;51.418;7.286;2022-09-09T10:20:53;3.40;;;0.70;;
55539;SDS011;41384;51.418;7.286;2022-09-09T10:28:53;3.72;;;0.80;;
55539;SDS011;41384;51.418;7.286;2022-09-09T10:31:43;5.25;;;0.90;;
55539;SDS011;41384;51.418;7.286;2022-09-09T10:37:11;5.07;;;0.80;;
55539;SDS011;41384;51.418;7.286;2022-09-09T10:40:02;3.20;;;0.80;;
55539;SDS011;41384;51.418;7.286;2022-09-09T10:42:44;2.20;;;0.60;;
55539;SDS011;41384;51.418;7.286;2022-09-09T10:45:30;1.20;;;0.60;;
55539;SDS011;41384;51.418;7.286;2022-09-09T10:53:51;2.72;;;0.60;;
55539;SDS011;41384;51.418;7.286;2022-09-09T10:56:24;3.95;;;0.60;;
55539;SDS011;41384;51.418;7.286;2022-09-09T10:59:02;1.02;;;0.60;;
55539;SDS011;41384;51.418;7.286;2022-09-09T11:01:34;3.92;;;0.63;;
55539;SDS011;41384;51.418;7.286;2022-09-09T11:04:09;2.40;;;0.50;;
55539;SDS011;41384;51.418;7.286;2022-09-09T11:06:41;1.90;;;0.60;;
55539;SDS011;41384;51.418;7.286;2022-09-09T11:09:17;1.98;;;0.80;;
55539;SDS011;41384;51.418;7.286;2022-09-09T11:11:55;1.90;;;0.65;;
55539;SDS011;41384;51.418;7.286;2022-09-09T11:14:39;4.15;;;0.77;;
55539;SDS011;41384;51.418;7.286;2022-09-09T11:17:14;2.30;;;0.60;;
55539;SDS011;41384;51.418;7.286;2022-09-09T11:19:42;1.38;;;0.65;;
55539;SDS011;41384;51.418;7.286;2022-09-09T11:25:10;4.50;;;0.50;;
55539;SDS011;41384;51.418;7.286;2022-09-09T11:28:04;4.00;;;0.63;;
55539;SDS011;41384;51.418;7.286;2022-09-09T11:30:54;4.45;;;0.75;;
55539;SDS011;41384;51.418;7.286;2022-09-09T11:42:12;2.65;;;0.50;;
55539;SDS011;41384;51.418;7.286;2022-09-09T11:44:43;2.92;;;0.40;;
55539;SDS011;41384;51.418;7.286;2022-09-09T11:47:28;1.60;;;0.40;;
55539;SDS011;41384;51.418;7.286;2022-09-09T11:50:40;3.58;;;0.70;;
55539;SDS011;41384;51.418;7.286;2022-09-09T11:52:41;2.95;;;0.50;;
55539;SDS011;41384;51.418;7.286;2022-09-09T11:57:45;1.00;;;0.50;;
55539;SDS011;41384;51.418;7.286;2022-09-09T12:06:17;1.30;;;0.55;;
55539;SDS011;41384;51.418;7.286;2022-09-09T12:11:50;2.53;;;0.90;;
55539;SDS011;41384;51.418;7.286;2022-09-09T12:14:34;3.97;;;0.90;;
55539;SDS011;41384;51.418;7.286;2022-09-09T12:19:39;1.25;;;0.80;;
55539;SDS011;41384;51.418;7.286;2022-09-09T12:22:09;1.02;;;0.70;;
55539;SDS011;41384;51.418;7.286;2022-09-09T12:25:09;2.60;;;0.63;;
55539;SDS011;41384;51.418;7.286;2022-09-09T12:28:09;2.92;;;0.93;;
55539;SDS011;41384;51.418;7.286;2022-09-09T12:33:39;3.17;;;0.80;;
55539;SDS011;41384;51.418;7.286;2022-09-09T12:36:11;3.95;;;1.27;;
55539;SDS011;41384;51.418;7.286;2022-09-09T12:38:41;2.20;;;0.80;;
55539;SDS011;41384;51.418;7.286;2022-09-09T12:41:20;3.22;;;1.00;;
55539;SDS011;41384;51.418;7.286;2022-09-09T12:43:46;3.03;;;0.70;;
55539;SDS011;41384;51.418;7.286;2022-09-09T12:46:16;1.88;;;0.55;;
55539;SDS011;41384;51.418;7.286;2022-09-09T12:48:58;2.20;;;0.55;;
55539;SDS011;41384;51.418;7.286;2022-09-09T12:51:24;2.55;;;0.80;;
55539;SDS011;41384;51.418;7.286;2022-09-09T12:53:53;3.42;;;0.82;;
55539;SDS011;41384;51.418;7.286;2022-09-09T12:56:21;5.55;;;0.98;;
55539;SDS011;41384;51.418;7.286;2022-09-09T12:58:50;3.20;;;0.80;;
55539;SDS011;41384;51.418;7.286;2022-09-09T13:01:26;3.67;;;1.05;;
55539;SDS011;41384;51.418;7.286;2022-09-09T13:03:53;2.75;;;0.88;;
55539;SDS011;41384;51.418;7.286;2022-09-09T13:06:21;1.42;;;0.60;;
55539;SDS011;41384;51.418;7.286;2022-09-09T13:08:54;1.55;;;0.60;;
55539;SDS011;41384;51.418;7.286;2022-09-09T13:11:31;4.68;;;0.90;;
55539;SDS011;41384;51.418;7.286;2022-09-09T13:14:04;3.58;;;0.95;;
55539;SDS011;41384;51.418;7.286;2022-09-09T13:16:34;2.00;;;0.75;;
55539;SDS011;41384;51.418;7.286;2022-09-09T13:19:02;2.50;;;0.70;;
55539;SDS011;41384;51.418;7.286;2022-09-09T13:21:52;2.88;;;0.77;;
55539;SDS011;41384;51.418;7.286;2022-09-09T13:29:23;2.67;;;0.90;;
55539;SDS011;41384;51.418;7.286;2022-09-09T13:31:49;3.33;;;0.75;;
55539;SDS011;41384;51.418;7.286;2022-09-09T13:34:30;2.63;;;0.80;;
55539;SDS011;41384;51.418;7.286;2022-09-09T13:37:06;3.67;;;0.70;;
55539;SDS011;41384;51.418;7.286;2022-09-09T13:39:51;3.90;;;0.77;;
55539;SDS011;41384;51.418;7.286;2022-09-09T13:42:28;1.83;;;0.60;;
55539;SDS011;41384;51.418;7.286;2022-09-09T13:44:55;2.20;;;0.70;;
55539;SDS011;41384;51.418;7.286;2022-09-09T13:47:34;1.27;;;0.60;;
55539;SDS011;41384;51.418;7.286;2022-09-09T13:52:56;3.22;;;1.10;;
55539;SDS011;41384;51.418;7.286;2022-09-09T13:55:29;4.15;;;1.00;;
55539;SDS011;41384;51.418;7.286;2022-09-09T14:00:25;1.70;;;1.17;;
55539;SDS011;41384;51.418;7.286;2022-09-09T14:02:51;2.30;;;0.93;;
55539;SDS011;41384;51.418;7.286;2022-09-09T14:05:17;1.67;;;0.77;;
55539;SDS011;41384;51.418;7.286;2022-09-09T14:07:43;4.22;;;1.15;;
55539;SDS011;41384;51.418;7.286;2022-09-09T14:10:09;5.25;;;1.10;;
55539;SDS011;41384;51.418;7.286;2022-09-09T14:12:36;2.22;;;0.90;;
55539;SDS011;41384;51.418;7.286;2022-09-09T14:15:03;2.85;;;1.08;;
55539;SDS011;41384;51.418;7.286;2022-09-09T14:17:29;2.35;;;1.00;;
55539;SDS011;41384;51.418;7.286;2022-09-09T14:19:56;3.17;;;0.80;;
55539;SDS011;41384;51.418;7.286;2022-09-09T14:22:22;2.75;;;1.10;;
55539;SDS011;41384;51.418;7.286;2022-09-09T14:24:48;1.92;;;0.73;;
55539;SDS011;41384;51.418;7.286;2022-09-09T14:27:14;2.00;;;0.88;;
55539;SDS011;41384;51.418;7.286;2022-09-09T14:29:40;1.80;;;0.63;;
55539;SDS011;41384;51.418;7.286;2022-09-09T14:32:06;3.83;;;1.10;;
55539;SDS011;41384;51.418;7.286;2022-09-09T14:34:31;5.93;;;0.93;;
55539;SDS011;41384;51.418;7.286;2022-09-09T14:37:00;3.50;;;0.98;;
55539;SDS011;41384;51.418;7.286;2022-09-09T14:39:25;5.25;;;0.90;;
55539;SDS011;41384;51.418;7.286;2022-09-09T14:41:51;2.65;;;0.90;;
55539;SDS011;41384;51.418;7.286;2022-09-09T14:44:16;2.28;;;0.77;;
55539;SDS011;41384;51.418;7.286;2022-09-09T14:46:41;1.70;;;0.75;;
55539;SDS011;41384;51.418;7.286;2022-09-09T14:49:09;3.95;;;0.93;;
55539;SDS011;41384;51.418;7.286;2022-09-09T14:51:38;7.68;;;1.90;;
55539;SDS011;41384;51.418;7.286;2022-09-09T14:54:03;4.43;;;1.20;;
55539;SDS011;41384;51.418;7.286;2022-09-09T14:56:31;2.67;;;1.08;;
55539;SDS011;41384;51.418;7.286;2022-09-09T14:58:59;3.30;;;1.20;;
55539;SDS011;41384;51.418;7.286;2022-09-09T15:01:29;2.05;;;1.10;;
55539;SDS011;41384;51.418;7.286;2022-09-09T15:03:58;4.93;;;1.27;;
55539;SDS011;41384;51.418;7.286;2022-09-09T15:06:26;4.82;;;1.50;;
55539;SDS011;41384;51.418;7.286;2022-09-09T15:08:54;3.60;;;1.30;;
55539;SDS011;41384;51.418;7.286;2022-09-09T15:11:22;3.10;;;1.40;;
55539;SDS011;41384;51.418;7.286;2022-09-09T15:13:50;4.07;;;1.27;;
55539;SDS011;41384;51.418;7.286;2022-09-09T15:16:17;3.88;;;1.42;;
55539;SDS011;41384;51.418;7.286;2022-09-09T15:18:44;3.15;;;1.25;;
55539;SDS011;41384;51.418;7.286;2022-09-09T15:21:15;6.10;;;1.20;;
55539;SDS011;41384;51.418;7.286;2022-09-09T15:23:41;3.63;;;1.08;;
55539;SDS011;41384;51.418;7.286;2022-09-09T15:26:07;2.13;;;0.80;;
55539;SDS011;41384;51.418;7.286;2022-09-09T15:28:34;2.17;;;1.00;;
55539;SDS011;41384;51.418;7.286;2022-09-09T15:31:05;2.88;;;1.08;;
55539;SDS011;41384;51.418;7.286;2022-09-09T15:33:33;2.50;;;0.73;;
55539;SDS011;41384;51.418;7.286;2022-09-09T15:36:11;4.80;;;0.77;;
55539;SDS011;41384;51.418;7.286;2022-09-09T15:41:10;2.58;;;0.50;;
55539;SDS011;41384;51.418;7.286;2022-09-09T15:43:37;1.15;;;0.43;;
55539;SDS011;41384;51.418;7.286;2022-09-09T15:46:09;3.60;;;0.60;;
55539;SDS011;41384;51.418;7.286;2022-09-09T15:48:52;1.85;;;0.60;;
55539;SDS011;41384;51.418;7.286;2022-09-09T15:51:39;0.95;;;0.30;;
55539;SDS011;41384;51.418;7.286;2022-09-09T15:54:07;1.50;;;0.47;;
55539;SDS011;41384;51.418;7.286;2022-09-09T15:56:33;1.38;;;0.50;;
55539;SDS011;41384;51.418;7.286;2022-09-09T15:59:00;0.75;;;0.43;;
55539;SDS011;41384;51.418;7.286;2022-09-09T16:01:28;1.48;;;0.32;;
55539;SDS011;41384;51.418;7.286;2022-09-09T16:03:55;1.65;;;0.55;;
55539;SDS011;41384;51.418;7.286;2022-09-09T16:06:22;1.30;;;0.60;;
55539;SDS011;41384;51.418;7.286;2022-09-09T16:08:50;2.65;;;0.50;;
55539;SDS011;41384;51.418;7.286;2022-09-09T16:11:21;0.50;;;0.50;;
55539;SDS011;41384;51.418;7.286;2022-09-09T16:13:48;1.40;;;0.60;;
55539;SDS011;41384;51.418;7.286;2022-09-09T16:16:15;0.40;;;0.40;;
55539;SDS011;41384;51.418;7.286;2022-09-09T16:18:45;2.25;;;0.43;;
55539;SDS011;41384;51.418;7.286;2022-09-09T16:23:49;0.80;;;0.40;;
55539;SDS011;41384;51.418;7.286;2022-09-09T16:26:16;0.60;;;0.40;;
55539;SDS011;41384;51.418;7.286;2022-09-09T16:28:42;2.05;;;0.50;;
55539;SDS011;41384;51.418;7.286;2022-09-09T16:31:10;1.40;;;0.52;;
55539;SDS011;41384;51.418;7.286;2022-09-09T16:33:42;1.10;;;0.50;;
55539;SDS011;41384;51.418;7.286;2022-09-09T16:36:08;1.35;;;0.50;;
55539;SDS011;41384;51.418;7.286;2022-09-09T16:38:36;1.10;;;0.45;;
55539;SDS011;41384;51.418;7.286;2022-09-09T16:41:02;1.17;;;0.40;;
55539;SDS011;41384;51.418;7.286;2022-09-09T16:43:30;2.00;;;0.50;;
55539;SDS011;41384;51.418;7.286;2022-09-09T16:45:56;2.83;;;0.50;;
55539;SDS011;41384;51.418;7.286;2022-09-09T16:48:22;1.27;;;0.70;;
55539;SDS011;41384;51.418;7.286;2022-09-09T16:50:47;1.15;;;0.70;;
55539;SDS011;41384;51.418;7.286;2022-09-09T16:53:13;2.90;;;0.80;;
55539;SDS011;41384;51.418;7.286;2022-09-09T16:55:40;1.90;;;0.77;;
55539;SDS011;41384;51.418;7.286;2022-09-09T16:58:06;2.83;;;0.70;;